sensor_id;sensor_type;location;lat;lon;timestamp;P1;durP1;ratioP1;P2;durP2;ratioP2
72920;SDS011;61064;51.654;5.476;2023-11-22T00:02:01;17.70;;;7.97;;
72920;SDS011;61064;51.654;5.476;2023-11-22T00:04:26;18.83;;;8.97;;
72920;SDS011;61064;51.654;5.476;2023-11-22T00:06:51;24.80;;;9.30;;
72920;SDS011;61064;51.654;5.476;2023-11-22T00:09:17;18.60;;;7.97;;
72920;SDS011;61064;51.654;5.476;2023-11-22T00:11:47;19.70;;;8.73;;
72920;SDS011;61064;51.654;5.476;2023-11-22T00:14:12;22.30;;;9.00;;
72920;SDS011;61064;51.654;5.476;2023-11-22T00:16:37;21.93;;;8.37;;
72920;SDS011;61064;51.654;5.476;2023-11-22T00:19:03;18.70;;;7.93;;
72920;SDS011;61064;51.654;5.476;2023-11-22T00:21:30;20.13;;;8.27;;
72920;SDS011;61064;51.654;5.476;2023-11-22T00:23:55;18.27;;;7.87;;
72920;SDS011;61064;51.654;5.476;2023-11-22T00:26:21;17.38;;;7.90;;
72920;SDS011;61064;51.654;5.476;2023-11-22T00:28:46;17.20;;;7.53;;
72920;SDS011;61064;51.654;5.476;2023-11-22T00:31:11;17.77;;;7.80;;
72920;SDS011;61064;51.654;5.476;2023-11-22T00:33:39;21.05;;;7.80;;
72920;SDS011;61064;51.654;5.476;2023-11-22T00:36:05;18.67;;;8.03;;
72920;SDS011;61064;51.654;5.476;2023-11-22T00:38:33;19.73;;;7.70;;
72920;SDS011;61064;51.654;5.476;2023-11-22T00:41:01;23.05;;;8.38;;
72920;SDS011;61064;51.654;5.476;2023-11-22T00:43:27;20.02;;;8.30;;
72920;SDS011;61064;51.654;5.476;2023-11-22T00:45:52;17.87;;;7.50;;
72920;SDS011;61064;51.654;5.476;2023-11-22T00:48:18;19.02;;;7.72;;
72920;SDS011;61064;51.654;5.476;2023-11-22T00:50:43;19.17;;;8.17;;
72920;SDS011;61064;51.654;5.476;2023-11-22T00:53:08;20.53;;;8.13;;
72920;SDS011;61064;51.654;5.476;2023-11-22T00:55:34;18.17;;;7.97;;
72920;SDS011;61064;51.654;5.476;2023-11-22T00:57:59;19.00;;;8.52;;
72920;SDS011;61064;51.654;5.476;2023-11-22T01:00:29;21.40;;;8.53;;
72920;SDS011;61064;51.654;5.476;2023-11-22T01:02:54;20.27;;;8.50;;
72920;SDS011;61064;51.654;5.476;2023-11-22T01:05:21;22.57;;;9.00;;
72920;SDS011;61064;51.654;5.476;2023-11-22T01:07:47;21.00;;;9.40;;
72920;SDS011;61064;51.654;5.476;2023-11-22T01:10:13;19.65;;;8.90;;
72920;SDS011;61064;51.654;5.476;2023-11-22T01:12:38;18.63;;;8.30;;
72920;SDS011;61064;51.654;5.476;2023-11-22T01:15:04;19.30;;;7.73;;
72920;SDS011;61064;51.654;5.476;2023-11-22T01:17:30;20.63;;;8.38;;
72920;SDS011;61064;51.654;5.476;2023-11-22T01:19:56;18.53;;;8.10;;
72920;SDS011;61064;51.654;5.476;2023-11-22T01:22:23;21.50;;;8.27;;
72920;SDS011;61064;51.654;5.476;2023-11-22T01:24:48;18.73;;;8.53;;
72920;SDS011;61064;51.654;5.476;2023-11-22T01:27:14;20.10;;;8.47;;
72920;SDS011;61064;51.654;5.476;2023-11-22T01:29:40;23.77;;;9.43;;
72920;SDS011;61064;51.654;5.476;2023-11-22T01:32:06;18.52;;;7.90;;
72920;SDS011;61064;51.654;5.476;2023-11-22T01:34:33;19.85;;;8.30;;
72920;SDS011;61064;51.654;5.476;2023-11-22T01:36:58;21.47;;;8.93;;
72920;SDS011;61064;51.654;5.476;2023-11-22T01:39:24;20.50;;;8.23;;
72920;SDS011;61064;51.654;5.476;2023-11-22T01:41:49;21.83;;;8.77;;
72920;SDS011;61064;51.654;5.476;2023-11-22T01:44:15;24.67;;;9.80;;
72920;SDS011;61064;51.654;5.476;2023-11-22T01:46:41;25.58;;;10.30;;
72920;SDS011;61064;51.654;5.476;2023-11-22T01:49:08;31.17;;;12.40;;
72920;SDS011;61064;51.654;5.476;2023-11-22T01:51:35;32.78;;;12.88;;
72920;SDS011;61064;51.654;5.476;2023-11-22T01:54:00;38.03;;;14.03;;
72920;SDS011;61064;51.654;5.476;2023-11-22T01:56:28;44.17;;;16.60;;
72920;SDS011;61064;51.654;5.476;2023-11-22T01:58:56;42.65;;;16.38;;
72920;SDS011;61064;51.654;5.476;2023-11-22T02:01:22;31.95;;;13.20;;
72920;SDS011;61064;51.654;5.476;2023-11-22T02:03:49;31.35;;;11.60;;
72920;SDS011;61064;51.654;5.476;2023-11-22T02:06:17;47.43;;;15.57;;
72920;SDS011;61064;51.654;5.476;2023-11-22T02:08:43;49.50;;;16.00;;
72920;SDS011;61064;51.654;5.476;2023-11-22T02:11:09;36.47;;;13.73;;
72920;SDS011;61064;51.654;5.476;2023-11-22T02:13:34;29.85;;;10.85;;
72920;SDS011;61064;51.654;5.476;2023-11-22T02:16:01;28.75;;;9.68;;
72920;SDS011;61064;51.654;5.476;2023-11-22T02:18:27;21.60;;;8.70;;
72920;SDS011;61064;51.654;5.476;2023-11-22T02:20:52;23.17;;;8.73;;
72920;SDS011;61064;51.654;5.476;2023-11-22T02:23:18;20.07;;;8.57;;
72920;SDS011;61064;51.654;5.476;2023-11-22T02:25:43;21.20;;;8.57;;
72920;SDS011;61064;51.654;5.476;2023-11-22T02:28:10;35.03;;;13.30;;
72920;SDS011;61064;51.654;5.476;2023-11-22T02:30:36;36.95;;;14.30;;
72920;SDS011;61064;51.654;5.476;2023-11-22T02:33:02;27.67;;;11.00;;
72920;SDS011;61064;51.654;5.476;2023-11-22T02:35:29;25.55;;;11.15;;
72920;SDS011;61064;51.654;5.476;2023-11-22T02:37:57;27.15;;;11.35;;
72920;SDS011;61064;51.654;5.476;2023-11-22T02:40:22;24.35;;;10.77;;
72920;SDS011;61064;51.654;5.476;2023-11-22T02:42:49;22.73;;;8.75;;
72920;SDS011;61064;51.654;5.476;2023-11-22T02:45:16;23.00;;;8.97;;
72920;SDS011;61064;51.654;5.476;2023-11-22T02:47:43;23.13;;;8.38;;
72920;SDS011;61064;51.654;5.476;2023-11-22T02:50:09;17.88;;;7.97;;
72920;SDS011;61064;51.654;5.476;2023-11-22T02:52:36;19.27;;;8.88;;
72920;SDS011;61064;51.654;5.476;2023-11-22T02:55:02;20.92;;;8.77;;
72920;SDS011;61064;51.654;5.476;2023-11-22T02:57:29;21.97;;;9.53;;
72920;SDS011;61064;51.654;5.476;2023-11-22T02:59:56;20.75;;;8.80;;
72920;SDS011;61064;51.654;5.476;2023-11-22T03:02:21;18.55;;;7.78;;
72920;SDS011;61064;51.654;5.476;2023-11-22T03:04:47;19.30;;;7.70;;
72920;SDS011;61064;51.654;5.476;2023-11-22T03:07:12;20.27;;;8.13;;
72920;SDS011;61064;51.654;5.476;2023-11-22T03:09:37;22.67;;;8.60;;
72920;SDS011;61064;51.654;5.476;2023-11-22T03:12:03;19.40;;;8.10;;
72920;SDS011;61064;51.654;5.476;2023-11-22T03:14:29;21.08;;;8.68;;
72920;SDS011;61064;51.654;5.476;2023-11-22T03:16:57;20.77;;;8.20;;
72920;SDS011;61064;51.654;5.476;2023-11-22T03:19:22;20.83;;;8.13;;
72920;SDS011;61064;51.654;5.476;2023-11-22T03:21:49;20.27;;;7.95;;
72920;SDS011;61064;51.654;5.476;2023-11-22T03:24:14;17.80;;;7.37;;
72920;SDS011;61064;51.654;5.476;2023-11-22T03:26:40;19.13;;;7.60;;
72920;SDS011;61064;51.654;5.476;2023-11-22T03:29:06;22.33;;;9.05;;
72920;SDS011;61064;51.654;5.476;2023-11-22T03:31:32;21.07;;;7.63;;
72920;SDS011;61064;51.654;5.476;2023-11-22T03:33:57;18.47;;;7.53;;
72920;SDS011;61064;51.654;5.476;2023-11-22T03:36:23;18.43;;;7.57;;
72920;SDS011;61064;51.654;5.476;2023-11-22T03:38:49;19.42;;;8.43;;
72920;SDS011;61064;51.654;5.476;2023-11-22T03:41:15;19.73;;;8.50;;
72920;SDS011;61064;51.654;5.476;2023-11-22T03:43:42;21.42;;;8.00;;
72920;SDS011;61064;51.654;5.476;2023-11-22T03:46:08;22.30;;;9.30;;
72920;SDS011;61064;51.654;5.476;2023-11-22T03:48:33;17.77;;;7.80;;
72920;SDS011;61064;51.654;5.476;2023-11-22T03:50:58;18.90;;;7.23;;
72920;SDS011;61064;51.654;5.476;2023-11-22T03:53:24;16.97;;;6.90;;
72920;SDS011;61064;51.654;5.476;2023-11-22T03:55:49;16.73;;;6.80;;
72920;SDS011;61064;51.654;5.476;2023-11-22T03:58:17;16.90;;;6.68;;
72920;SDS011;61064;51.654;5.476;2023-11-22T04:00:43;18.00;;;6.80;;
72920;SDS011;61064;51.654;5.476;2023-11-22T04:03:08;14.88;;;6.28;;
72920;SDS011;61064;51.654;5.476;2023-11-22T04:05:34;19.08;;;7.70;;
72920;SDS011;61064;51.654;5.476;2023-11-22T04:07:59;17.73;;;6.63;;
72920;SDS011;61064;51.654;5.476;2023-11-22T04:10:24;18.03;;;6.83;;
72920;SDS011;61064;51.654;5.476;2023-11-22T04:12:50;17.37;;;7.10;;
72920;SDS011;61064;51.654;5.476;2023-11-22T04:15:15;16.13;;;6.40;;
72920;SDS011;61064;51.654;5.476;2023-11-22T04:17:41;14.93;;;6.00;;
72920;SDS011;61064;51.654;5.476;2023-11-22T04:20:06;19.85;;;7.15;;
72920;SDS011;61064;51.654;5.476;2023-11-22T04:22:35;16.03;;;6.90;;
72920;SDS011;61064;51.654;5.476;2023-11-22T04:25:01;16.77;;;6.57;;
72920;SDS011;61064;51.654;5.476;2023-11-22T04:27:27;17.25;;;7.22;;
72920;SDS011;61064;51.654;5.476;2023-11-22T04:29:52;18.37;;;6.77;;
72920;SDS011;61064;51.654;5.476;2023-11-22T04:32:18;17.50;;;7.07;;
72920;SDS011;61064;51.654;5.476;2023-11-22T04:34:43;16.07;;;6.43;;
72920;SDS011;61064;51.654;5.476;2023-11-22T04:37:08;17.30;;;6.80;;
72920;SDS011;61064;51.654;5.476;2023-11-22T04:39:34;16.97;;;6.43;;
72920;SDS011;61064;51.654;5.476;2023-11-22T04:41:59;19.13;;;7.67;;
72920;SDS011;61064;51.654;5.476;2023-11-22T04:44:25;19.20;;;6.68;;
72920;SDS011;61064;51.654;5.476;2023-11-22T04:46:51;16.77;;;6.87;;
72920;SDS011;61064;51.654;5.476;2023-11-22T04:49:16;17.27;;;6.97;;
72920;SDS011;61064;51.654;5.476;2023-11-22T04:51:42;18.58;;;6.80;;
72920;SDS011;61064;51.654;5.476;2023-11-22T04:54:09;16.42;;;6.22;;
72920;SDS011;61064;51.654;5.476;2023-11-22T04:56:34;15.53;;;6.03;;
72920;SDS011;61064;51.654;5.476;2023-11-22T04:59:00;14.43;;;5.87;;
72920;SDS011;61064;51.654;5.476;2023-11-22T05:01:30;18.00;;;6.40;;
72920;SDS011;61064;51.654;5.476;2023-11-22T05:03:57;15.18;;;6.18;;
72920;SDS011;61064;51.654;5.476;2023-11-22T05:06:22;16.70;;;6.73;;
72920;SDS011;61064;51.654;5.476;2023-11-22T05:08:47;18.40;;;6.70;;
72920;SDS011;61064;51.654;5.476;2023-11-22T05:11:13;16.87;;;6.73;;
72920;SDS011;61064;51.654;5.476;2023-11-22T05:13:40;17.23;;;6.40;;
72920;SDS011;61064;51.654;5.476;2023-11-22T05:16:07;17.98;;;7.55;;
72920;SDS011;61064;51.654;5.476;2023-11-22T05:18:33;15.00;;;6.30;;
72920;SDS011;61064;51.654;5.476;2023-11-22T05:20:58;17.80;;;6.90;;
72920;SDS011;61064;51.654;5.476;2023-11-22T05:23:24;17.70;;;7.27;;
72920;SDS011;61064;51.654;5.476;2023-11-22T05:25:49;20.73;;;7.50;;
72920;SDS011;61064;51.654;5.476;2023-11-22T05:28:14;19.03;;;7.33;;
72920;SDS011;61064;51.654;5.476;2023-11-22T05:30:40;20.83;;;7.70;;
72920;SDS011;61064;51.654;5.476;2023-11-22T05:33:05;20.67;;;7.77;;
72920;SDS011;61064;51.654;5.476;2023-11-22T05:35:30;19.40;;;7.60;;
72920;SDS011;61064;51.654;5.476;2023-11-22T05:37:56;17.90;;;7.23;;
72920;SDS011;61064;51.654;5.476;2023-11-22T05:40:22;18.60;;;6.90;;
72920;SDS011;61064;51.654;5.476;2023-11-22T05:42:47;17.93;;;7.23;;
72920;SDS011;61064;51.654;5.476;2023-11-22T05:45:13;21.40;;;7.80;;
72920;SDS011;61064;51.654;5.476;2023-11-22T05:47:38;17.27;;;6.73;;
72920;SDS011;61064;51.654;5.476;2023-11-22T05:50:04;19.83;;;7.23;;
72920;SDS011;61064;51.654;5.476;2023-11-22T05:52:30;20.70;;;7.38;;
72920;SDS011;61064;51.654;5.476;2023-11-22T05:54:55;21.13;;;7.73;;
72920;SDS011;61064;51.654;5.476;2023-11-22T05:57:21;20.52;;;7.93;;
72920;SDS011;61064;51.654;5.476;2023-11-22T05:59:46;18.40;;;6.63;;
72920;SDS011;61064;51.654;5.476;2023-11-22T06:02:12;17.37;;;7.13;;
72920;SDS011;61064;51.654;5.476;2023-11-22T06:04:37;20.40;;;7.80;;
72920;SDS011;61064;51.654;5.476;2023-11-22T06:07:03;20.43;;;8.30;;
72920;SDS011;61064;51.654;5.476;2023-11-22T06:09:30;20.70;;;7.55;;
72920;SDS011;61064;51.654;5.476;2023-11-22T06:11:55;18.90;;;7.37;;
72920;SDS011;61064;51.654;5.476;2023-11-22T06:14:20;20.57;;;7.97;;
72920;SDS011;61064;51.654;5.476;2023-11-22T06:16:46;21.63;;;8.53;;
72920;SDS011;61064;51.654;5.476;2023-11-22T06:19:15;18.53;;;7.60;;
72920;SDS011;61064;51.654;5.476;2023-11-22T06:21:40;19.88;;;7.90;;
72920;SDS011;61064;51.654;5.476;2023-11-22T06:24:06;18.57;;;7.43;;
72920;SDS011;61064;51.654;5.476;2023-11-22T06:26:33;22.42;;;8.30;;
72920;SDS011;61064;51.654;5.476;2023-11-22T06:28:59;19.95;;;8.13;;
72920;SDS011;61064;51.654;5.476;2023-11-22T06:31:25;24.33;;;8.30;;
72920;SDS011;61064;51.654;5.476;2023-11-22T06:33:50;23.73;;;9.00;;
72920;SDS011;61064;51.654;5.476;2023-11-22T06:36:17;24.27;;;9.48;;
72920;SDS011;61064;51.654;5.476;2023-11-22T06:38:43;21.05;;;8.85;;
72920;SDS011;61064;51.654;5.476;2023-11-22T06:41:08;21.47;;;8.37;;
72920;SDS011;61064;51.654;5.476;2023-11-22T06:43:34;21.63;;;8.63;;
72920;SDS011;61064;51.654;5.476;2023-11-22T06:45:59;23.05;;;8.25;;
72920;SDS011;61064;51.654;5.476;2023-11-22T06:48:25;24.63;;;9.13;;
72920;SDS011;61064;51.654;5.476;2023-11-22T06:50:51;20.63;;;8.13;;
72920;SDS011;61064;51.654;5.476;2023-11-22T06:53:16;19.20;;;7.50;;
72920;SDS011;61064;51.654;5.476;2023-11-22T06:55:44;22.02;;;8.60;;
72920;SDS011;61064;51.654;5.476;2023-11-22T06:58:10;23.37;;;8.60;;
72920;SDS011;61064;51.654;5.476;2023-11-22T07:00:36;21.65;;;8.80;;
72920;SDS011;61064;51.654;5.476;2023-11-22T07:03:01;22.00;;;8.97;;
72920;SDS011;61064;51.654;5.476;2023-11-22T07:05:27;23.97;;;8.97;;
72920;SDS011;61064;51.654;5.476;2023-11-22T07:07:55;21.95;;;8.40;;
72920;SDS011;61064;51.654;5.476;2023-11-22T07:10:20;19.77;;;8.47;;
72920;SDS011;61064;51.654;5.476;2023-11-22T07:12:46;18.60;;;7.53;;
72920;SDS011;61064;51.654;5.476;2023-11-22T07:15:12;22.42;;;8.50;;
72920;SDS011;61064;51.654;5.476;2023-11-22T07:17:39;21.52;;;8.63;;
72920;SDS011;61064;51.654;5.476;2023-11-22T07:20:05;23.83;;;8.80;;
72920;SDS011;61064;51.654;5.476;2023-11-22T07:22:34;22.90;;;8.70;;
72920;SDS011;61064;51.654;5.476;2023-11-22T07:25:00;22.08;;;8.63;;
72920;SDS011;61064;51.654;5.476;2023-11-22T07:27:27;25.95;;;9.52;;
72920;SDS011;61064;51.654;5.476;2023-11-22T07:29:53;26.45;;;9.32;;
72920;SDS011;61064;51.654;5.476;2023-11-22T07:32:19;29.20;;;10.23;;
72920;SDS011;61064;51.654;5.476;2023-11-22T07:34:47;28.00;;;10.18;;
72920;SDS011;61064;51.654;5.476;2023-11-22T07:37:13;31.00;;;10.10;;
72920;SDS011;61064;51.654;5.476;2023-11-22T07:39:39;32.63;;;11.25;;
72920;SDS011;61064;51.654;5.476;2023-11-22T07:42:05;37.93;;;10.77;;
72920;SDS011;61064;51.654;5.476;2023-11-22T07:44:33;54.08;;;10.32;;
72920;SDS011;61064;51.654;5.476;2023-11-22T07:47:01;42.13;;;10.63;;
72920;SDS011;61064;51.654;5.476;2023-11-22T07:49:33;28.90;;;10.00;;
72920;SDS011;61064;51.654;5.476;2023-11-22T07:52:03;41.97;;;9.83;;
72920;SDS011;61064;51.654;5.476;2023-11-22T07:54:29;27.35;;;9.35;;
72920;SDS011;61064;51.654;5.476;2023-11-22T07:56:55;43.13;;;10.68;;
72920;SDS011;61064;51.654;5.476;2023-11-22T07:59:21;29.50;;;9.93;;
72920;SDS011;61064;51.654;5.476;2023-11-22T08:01:46;32.30;;;10.13;;
72920;SDS011;61064;51.654;5.476;2023-11-22T08:04:14;31.58;;;10.95;;
72920;SDS011;61064;51.654;5.476;2023-11-22T08:06:41;52.58;;;11.20;;
72920;SDS011;61064;51.654;5.476;2023-11-22T08:09:07;50.23;;;11.20;;
72920;SDS011;61064;51.654;5.476;2023-11-22T08:11:34;45.97;;;11.18;;
72920;SDS011;61064;51.654;5.476;2023-11-22T08:14:00;40.60;;;10.50;;
72920;SDS011;61064;51.654;5.476;2023-11-22T08:16:26;65.22;;;11.65;;
72920;SDS011;61064;51.654;5.476;2023-11-22T08:18:54;33.78;;;11.02;;
72920;SDS011;61064;51.654;5.476;2023-11-22T08:21:21;45.97;;;12.10;;
72920;SDS011;61064;51.654;5.476;2023-11-22T08:23:48;54.88;;;11.02;;
72920;SDS011;61064;51.654;5.476;2023-11-22T08:26:14;38.25;;;10.90;;
72920;SDS011;61064;51.654;5.476;2023-11-22T08:28:39;51.07;;;11.57;;
72920;SDS011;61064;51.654;5.476;2023-11-22T08:31:05;34.50;;;11.73;;
72920;SDS011;61064;51.654;5.476;2023-11-22T08:33:34;56.90;;;12.07;;
72920;SDS011;61064;51.654;5.476;2023-11-22T08:35:59;35.40;;;11.63;;
72920;SDS011;61064;51.654;5.476;2023-11-22T08:38:27;51.30;;;12.35;;
72920;SDS011;61064;51.654;5.476;2023-11-22T08:40:52;35.37;;;11.50;;
72920;SDS011;61064;51.654;5.476;2023-11-22T08:43:17;41.97;;;12.10;;
72920;SDS011;61064;51.654;5.476;2023-11-22T08:45:47;45.97;;;12.18;;
72920;SDS011;61064;51.654;5.476;2023-11-22T08:48:13;40.60;;;12.25;;
72920;SDS011;61064;51.654;5.476;2023-11-22T08:50:40;43.72;;;12.70;;
72920;SDS011;61064;51.654;5.476;2023-11-22T08:53:05;34.93;;;11.03;;
72920;SDS011;61064;51.654;5.476;2023-11-22T08:55:30;30.03;;;10.90;;
72920;SDS011;61064;51.654;5.476;2023-11-22T08:57:58;38.88;;;11.05;;
72920;SDS011;61064;51.654;5.476;2023-11-22T09:00:24;37.97;;;11.43;;
72920;SDS011;61064;51.654;5.476;2023-11-22T09:02:53;32.88;;;11.32;;
72920;SDS011;61064;51.654;5.476;2023-11-22T09:05:19;31.92;;;11.02;;
72920;SDS011;61064;51.654;5.476;2023-11-22T09:07:46;34.38;;;11.88;;
72920;SDS011;61064;51.654;5.476;2023-11-22T09:10:12;43.10;;;13.30;;
72920;SDS011;61064;51.654;5.476;2023-11-22T09:12:39;36.92;;;13.35;;
72920;SDS011;61064;51.654;5.476;2023-11-22T09:15:06;37.05;;;13.18;;
72920;SDS011;61064;51.654;5.476;2023-11-22T09:17:39;39.60;;;14.02;;
72920;SDS011;61064;51.654;5.476;2023-11-22T09:20:11;43.63;;;13.67;;
72920;SDS011;61064;51.654;5.476;2023-11-22T09:25:14;42.00;;;14.90;;
72920;SDS011;61064;51.654;5.476;2023-11-22T09:27:41;43.67;;;16.20;;
72920;SDS011;61064;51.654;5.476;2023-11-22T09:30:14;42.10;;;14.77;;
72920;SDS011;61064;51.654;5.476;2023-11-22T09:32:56;37.90;;;13.73;;
72920;SDS011;61064;51.654;5.476;2023-11-22T09:35:22;40.67;;;14.45;;
72920;SDS011;61064;51.654;5.476;2023-11-22T09:37:47;38.00;;;14.47;;
72920;SDS011;61064;51.654;5.476;2023-11-22T09:40:13;40.83;;;15.30;;
72920;SDS011;61064;51.654;5.476;2023-11-22T09:42:42;47.67;;;15.75;;
72920;SDS011;61064;51.654;5.476;2023-11-22T09:45:09;37.30;;;14.52;;
72920;SDS011;61064;51.654;5.476;2023-11-22T09:47:37;39.50;;;13.60;;
72920;SDS011;61064;51.654;5.476;2023-11-22T09:50:03;41.80;;;14.45;;
72920;SDS011;61064;51.654;5.476;2023-11-22T09:52:32;41.80;;;13.93;;
72920;SDS011;61064;51.654;5.476;2023-11-22T09:55:02;40.43;;;14.57;;
72920;SDS011;61064;51.654;5.476;2023-11-22T09:57:28;44.65;;;15.23;;
72920;SDS011;61064;51.654;5.476;2023-11-22T09:59:55;44.33;;;15.10;;
72920;SDS011;61064;51.654;5.476;2023-11-22T10:02:22;38.50;;;14.23;;
72920;SDS011;61064;51.654;5.476;2023-11-22T10:04:52;41.45;;;14.63;;
72920;SDS011;61064;51.654;5.476;2023-11-22T10:07:18;46.73;;;15.07;;
72920;SDS011;61064;51.654;5.476;2023-11-22T10:09:43;45.60;;;15.13;;
72920;SDS011;61064;51.654;5.476;2023-11-22T10:12:09;48.47;;;15.60;;
72920;SDS011;61064;51.654;5.476;2023-11-22T10:14:37;45.78;;;15.15;;
72920;SDS011;61064;51.654;5.476;2023-11-22T10:17:03;48.87;;;15.77;;
72920;SDS011;61064;51.654;5.476;2023-11-22T10:19:30;45.33;;;15.90;;
72920;SDS011;61064;51.654;5.476;2023-11-22T10:22:03;47.67;;;15.90;;
72920;SDS011;61064;51.654;5.476;2023-11-22T10:24:30;50.05;;;16.02;;
72920;SDS011;61064;51.654;5.476;2023-11-22T10:26:58;45.93;;;15.57;;
72920;SDS011;61064;51.654;5.476;2023-11-22T10:29:26;49.75;;;16.60;;
72920;SDS011;61064;51.654;5.476;2023-11-22T10:31:52;46.58;;;15.52;;
72920;SDS011;61064;51.654;5.476;2023-11-22T10:34:21;41.77;;;14.27;;
72920;SDS011;61064;51.654;5.476;2023-11-22T10:36:48;44.38;;;15.50;;
72920;SDS011;61064;51.654;5.476;2023-11-22T10:39:16;42.65;;;15.30;;
72920;SDS011;61064;51.654;5.476;2023-11-22T10:41:44;45.95;;;15.32;;
72920;SDS011;61064;51.654;5.476;2023-11-22T10:44:15;46.60;;;15.43;;
72920;SDS011;61064;51.654;5.476;2023-11-22T10:46:41;43.27;;;15.47;;
72920;SDS011;61064;51.654;5.476;2023-11-22T10:49:06;49.35;;;16.40;;
72920;SDS011;61064;51.654;5.476;2023-11-22T10:51:32;48.97;;;16.17;;
72920;SDS011;61064;51.654;5.476;2023-11-22T10:54:02;50.40;;;17.60;;
72920;SDS011;61064;51.654;5.476;2023-11-22T10:56:28;46.55;;;15.88;;
72920;SDS011;61064;51.654;5.476;2023-11-22T10:59:02;48.00;;;16.42;;
72920;SDS011;61064;51.654;5.476;2023-11-22T11:01:33;42.60;;;15.73;;
72920;SDS011;61064;51.654;5.476;2023-11-22T11:04:02;43.88;;;16.10;;
72920;SDS011;61064;51.654;5.476;2023-11-22T11:06:36;41.20;;;15.40;;
72920;SDS011;61064;51.654;5.476;2023-11-22T11:09:03;43.73;;;15.90;;
72920;SDS011;61064;51.654;5.476;2023-11-22T11:11:37;40.75;;;16.23;;
72920;SDS011;61064;51.654;5.476;2023-11-22T11:14:04;43.42;;;16.45;;
72920;SDS011;61064;51.654;5.476;2023-11-22T11:16:32;41.33;;;16.13;;
72920;SDS011;61064;51.654;5.476;2023-11-22T11:19:02;39.70;;;15.55;;
72920;SDS011;61064;51.654;5.476;2023-11-22T11:21:29;44.33;;;16.03;;
72920;SDS011;61064;51.654;5.476;2023-11-22T11:23:58;40.42;;;14.55;;
72920;SDS011;61064;51.654;5.476;2023-11-22T11:26:27;39.92;;;14.75;;
72920;SDS011;61064;51.654;5.476;2023-11-22T11:28:54;37.22;;;14.35;;
72920;SDS011;61064;51.654;5.476;2023-11-22T11:31:22;38.97;;;14.52;;
72920;SDS011;61064;51.654;5.476;2023-11-22T11:36:27;38.55;;;14.98;;
72920;SDS011;61064;51.654;5.476;2023-11-22T11:39:00;42.43;;;15.87;;
72920;SDS011;61064;51.654;5.476;2023-11-22T11:41:33;39.00;;;14.30;;
72920;SDS011;61064;51.654;5.476;2023-11-22T11:44:03;39.35;;;15.50;;
72920;SDS011;61064;51.654;5.476;2023-11-22T11:46:29;37.95;;;15.27;;
72920;SDS011;61064;51.654;5.476;2023-11-22T11:48:55;43.53;;;15.70;;
72920;SDS011;61064;51.654;5.476;2023-11-22T11:51:25;42.30;;;14.60;;
72920;SDS011;61064;51.654;5.476;2023-11-22T11:53:52;38.30;;;14.35;;
72920;SDS011;61064;51.654;5.476;2023-11-22T11:56:19;39.30;;;14.02;;
72920;SDS011;61064;51.654;5.476;2023-11-22T11:58:45;41.67;;;14.50;;
72920;SDS011;61064;51.654;5.476;2023-11-22T12:01:17;40.42;;;14.50;;
72920;SDS011;61064;51.654;5.476;2023-11-22T12:03:47;38.35;;;13.55;;
72920;SDS011;61064;51.654;5.476;2023-11-22T12:06:19;33.97;;;12.57;;
72920;SDS011;61064;51.654;5.476;2023-11-22T12:08:44;41.17;;;14.27;;
72920;SDS011;61064;51.654;5.476;2023-11-22T12:11:12;37.17;;;13.40;;
72920;SDS011;61064;51.654;5.476;2023-11-22T12:13:44;39.95;;;14.57;;
72920;SDS011;61064;51.654;5.476;2023-11-22T12:16:15;39.78;;;14.27;;
72920;SDS011;61064;51.654;5.476;2023-11-22T12:18:42;42.10;;;14.30;;
72920;SDS011;61064;51.654;5.476;2023-11-22T12:21:09;38.13;;;14.23;;
72920;SDS011;61064;51.654;5.476;2023-11-22T12:23:41;41.28;;;13.57;;
72920;SDS011;61064;51.654;5.476;2023-11-22T12:26:14;37.50;;;13.70;;
72920;SDS011;61064;51.654;5.476;2023-11-22T12:28:40;38.15;;;13.77;;
72920;SDS011;61064;51.654;5.476;2023-11-22T12:31:13;41.30;;;14.90;;
72920;SDS011;61064;51.654;5.476;2023-11-22T12:33:40;46.73;;;15.43;;
72920;SDS011;61064;51.654;5.476;2023-11-22T12:36:08;45.90;;;15.32;;
72920;SDS011;61064;51.654;5.476;2023-11-22T12:38:34;43.17;;;16.02;;
72920;SDS011;61064;51.654;5.476;2023-11-22T12:41:00;46.95;;;15.80;;
72920;SDS011;61064;51.654;5.476;2023-11-22T12:43:28;44.80;;;15.85;;
72920;SDS011;61064;51.654;5.476;2023-11-22T12:46:00;46.20;;;15.33;;
72920;SDS011;61064;51.654;5.476;2023-11-22T12:48:26;48.25;;;16.13;;
72920;SDS011;61064;51.654;5.476;2023-11-22T12:50:55;47.00;;;15.90;;
72920;SDS011;61064;51.654;5.476;2023-11-22T12:53:21;46.20;;;16.20;;
72920;SDS011;61064;51.654;5.476;2023-11-22T12:55:48;41.43;;;14.83;;
72920;SDS011;61064;51.654;5.476;2023-11-22T12:58:22;41.67;;;15.70;;
72920;SDS011;61064;51.654;5.476;2023-11-22T13:00:49;39.65;;;14.43;;
72920;SDS011;61064;51.654;5.476;2023-11-22T13:03:23;37.20;;;13.82;;
72920;SDS011;61064;51.654;5.476;2023-11-22T13:05:49;36.92;;;14.05;;
72920;SDS011;61064;51.654;5.476;2023-11-22T13:08:17;36.47;;;14.10;;
72920;SDS011;61064;51.654;5.476;2023-11-22T13:10:43;34.63;;;13.18;;
72920;SDS011;61064;51.654;5.476;2023-11-22T13:13:14;34.75;;;13.40;;
72920;SDS011;61064;51.654;5.476;2023-11-22T13:15:39;33.87;;;13.73;;
72920;SDS011;61064;51.654;5.476;2023-11-22T13:18:08;33.10;;;12.90;;
72920;SDS011;61064;51.654;5.476;2023-11-22T13:20:34;36.47;;;13.10;;
72920;SDS011;61064;51.654;5.476;2023-11-22T13:23:00;31.75;;;12.63;;
72920;SDS011;61064;51.654;5.476;2023-11-22T13:25:27;29.08;;;11.55;;
72920;SDS011;61064;51.654;5.476;2023-11-22T13:27:52;32.43;;;12.70;;
72920;SDS011;61064;51.654;5.476;2023-11-22T13:30:19;31.13;;;12.50;;
72920;SDS011;61064;51.654;5.476;2023-11-22T13:33:06;31.08;;;11.82;;
72920;SDS011;61064;51.654;5.476;2023-11-22T13:35:32;31.42;;;12.95;;
72920;SDS011;61064;51.654;5.476;2023-11-22T13:38:02;31.30;;;11.65;;
72920;SDS011;61064;51.654;5.476;2023-11-22T13:40:28;34.30;;;12.50;;
72920;SDS011;61064;51.654;5.476;2023-11-22T13:42:57;33.72;;;12.40;;
72920;SDS011;61064;51.654;5.476;2023-11-22T13:45:23;31.37;;;12.03;;
72920;SDS011;61064;51.654;5.476;2023-11-22T13:47:49;30.50;;;12.43;;
72920;SDS011;61064;51.654;5.476;2023-11-22T13:50:28;31.13;;;12.25;;
72920;SDS011;61064;51.654;5.476;2023-11-22T13:52:55;34.47;;;12.65;;
72920;SDS011;61064;51.654;5.476;2023-11-22T13:55:21;36.55;;;13.13;;
72920;SDS011;61064;51.654;5.476;2023-11-22T13:57:54;33.87;;;13.37;;
72920;SDS011;61064;51.654;5.476;2023-11-22T14:00:24;36.15;;;12.88;;
72920;SDS011;61064;51.654;5.476;2023-11-22T14:02:57;36.22;;;13.57;;
72920;SDS011;61064;51.654;5.476;2023-11-22T14:05:29;35.75;;;12.73;;
72920;SDS011;61064;51.654;5.476;2023-11-22T14:07:55;36.90;;;13.23;;
72920;SDS011;61064;51.654;5.476;2023-11-22T14:10:21;38.53;;;14.57;;
72920;SDS011;61064;51.654;5.476;2023-11-22T14:12:48;38.38;;;14.13;;
72920;SDS011;61064;51.654;5.476;2023-11-22T14:15:14;38.85;;;14.30;;
72920;SDS011;61064;51.654;5.476;2023-11-22T14:17:42;36.13;;;13.88;;
72920;SDS011;61064;51.654;5.476;2023-11-22T14:20:08;45.70;;;15.63;;
72920;SDS011;61064;51.654;5.476;2023-11-22T14:22:35;43.22;;;15.38;;
72920;SDS011;61064;51.654;5.476;2023-11-22T14:25:02;43.90;;;15.85;;
72920;SDS011;61064;51.654;5.476;2023-11-22T14:27:27;45.97;;;16.38;;
72920;SDS011;61064;51.654;5.476;2023-11-22T14:29:55;45.33;;;16.20;;
72920;SDS011;61064;51.654;5.476;2023-11-22T14:32:20;44.70;;;17.08;;